Chilik Southeast Airfield

Jump to: basic info | weather | comments

Related pages: nearby airports | nearby navaids

Basic information (top)

Location: lon 43.223598, lat 78.732399, elev 4,497 ft / 1,371 m msl
Status: small_airport

Weather (top)

Current conditions for Almaty Airport 74nm (138km) W (rec'd 2014/09/30 15:30Z):

UAAA 301530Z 05002MPS 030V090 9999 SCT050CB OVC100 16/07 Q1014 R88/65D TEMPO 34012MPS

Airport forecast for Almaty Airport 74nm (138km) W (rec'd 2014/09/30 12:18Z):

TAF TAF UAAA 301100Z 3012/0112 24006MPS 9999 BKN050CB BKN100 TX18/0106Z TN08/0101Z 
      TEMPO 3012/3017 34009MPS 3000 FU 
      TEMPO 3017/0108 VRB13MPS TSRA SQ 
      TEMPO 0108/0112 34012MPS 3000 SHRA BR BKN010CB OVC100

Latest comments (top)

Spelling: OK oK its Kazakhstan♄, so you have a ... [read]

Airfield: I came across this airfield on Google, ... [read]

More... (top)

See also NOTAMs and nearby airports and navaids, or visit the Chilik Southeast Airfield page at the main OurAirports website..